Time;durP1;ratioP1;P1;durP2;ratioP2;P2;SDS_P1;SDS_P2;PMS_P1;PMS_P2;Temp;Humidity;BMP_temperature;BMP_pressure;BME280_temperature;BME280_humidity;BME280_pressure;Samples;Min_cycle;Max_cycle;Signal;HPM_P1;HPM_P2
2021/08/31 00:01:35;;;;;;;28.83;12.13;;;16.40;99.90;;;;;;5075445;28;20223;-81
2021/08/31 00:04:02;;;;;;;25.97;12.73;;;16.40;99.90;;;;;;5075630;28;20246;-79
2021/08/31 00:06:30;;;;;;;22.00;11.90;;;16.40;99.90;;;;;;5075531;28;20202;-78
2021/08/31 00:08:57;;;;;;;23.37;11.63;;;16.50;99.90;;;;;;5075656;28;20242;-79
2021/08/31 00:11:24;;;;;;;32.13;12.27;;;16.50;99.90;;;;;;5075031;28;20295;-78
2021/08/31 00:13:51;;;;;;;22.43;12.27;;;16.50;99.90;;;;;;5075024;28;20718;-79
2021/08/31 00:16:18;;;;;;;25.50;12.63;;;16.40;99.90;;;;;;5075192;28;20234;-80
2021/08/31 00:18:45;;;;;;;28.77;12.30;;;16.40;99.90;;;;;;5075202;28;20288;-78
2021/08/31 00:21:13;;;;;;;26.73;12.17;;;16.40;99.90;;;;;;5075257;28;20230;-78
2021/08/31 00:23:41;;;;;;;23.23;12.37;;;16.50;99.90;;;;;;5074763;28;20630;-78
2021/08/31 00:26:08;;;;;;;20.27;12.13;;;16.40;99.90;;;;;;5075320;28;20222;-81
2021/08/31 00:28:35;;;;;;;29.77;14.50;;;16.50;99.90;;;;;;5074918;28;20607;-77
2021/08/31 00:31:03;;;;;;;30.40;13.90;;;16.30;99.90;;;;;;5074474;28;20246;-78
2021/08/31 00:33:30;;;;;;;26.90;13.33;;;16.30;99.90;;;;;;5077337;28;20290;-80
2021/08/31 00:35:58;;;;;;;23.63;12.97;;;16.30;99.90;;;;;;5086033;28;20286;-79
2021/08/31 00:38:25;;;;;;;22.93;12.87;;;16.30;99.90;;;;;;5075168;28;20207;-80
2021/08/31 00:40:53;;;;;;;24.13;12.97;;;16.30;99.90;;;;;;5074666;28;20282;-79
2021/08/31 00:43:20;;;;;;;23.10;12.73;;;16.20;99.90;;;;;;5074651;28;20606;-76
2021/08/31 00:45:48;;;;;;;25.40;13.43;;;16.20;99.90;;;;;;5068475;28;20215;-79
2021/08/31 00:48:17;;;;;;;29.07;13.60;;;16.10;99.90;;;;;;5066379;28;20261;-78
2021/08/31 00:50:45;;;;;;;27.37;14.20;;;16.10;99.90;;;;;;5074540;28;20203;-78
2021/08/31 00:53:12;;;;;;;28.00;13.10;;;16.20;99.90;;;;;;5073532;28;20211;-77
2021/08/31 00:55:39;;;;;;;31.17;13.70;;;16.30;99.90;;;;;;5074364;28;20199;-79
2021/08/31 00:58:07;;;;;;;21.23;12.90;;;16.30;99.90;;;;;;5074311;28;20204;-80
2021/08/31 01:00:34;;;;;;;28.40;13.17;;;16.30;99.90;;;;;;5074100;28;20238;-78
2021/08/31 01:03:01;;;;;;;24.03;13.50;;;16.20;99.90;;;;;;5073995;28;20227;-80
2021/08/31 01:05:30;;;;;;;26.27;13.60;;;16.10;99.90;;;;;;5074334;28;20630;-80
2021/08/31 01:07:57;;;;;;;25.53;13.77;;;16.10;99.90;;;;;;5060225;28;20203;-81
2021/08/31 01:10:25;;;;;;;25.67;14.00;;;16.10;99.90;;;;;;5074004;28;20204;-79
2021/08/31 01:12:54;;;;;;;26.20;14.37;;;16.20;99.90;;;;;;5073983;28;20637;-79
2021/08/31 01:15:22;;;;;;;26.17;13.73;;;16.20;99.90;;;;;;5073809;28;20652;-78
2021/08/31 01:17:49;;;;;;;30.00;14.20;;;16.30;99.90;;;;;;5073785;28;20697;-78
2021/08/31 01:20:16;;;;;;;24.10;13.83;;;16.20;99.90;;;;;;5073575;28;20572;-81
2021/08/31 01:22:43;;;;;;;29.73;14.80;;;16.20;99.90;;;;;;5074035;28;20281;-79
2021/08/31 01:25:12;;;;;;;27.17;14.80;;;16.20;99.90;;;;;;5073712;28;20219;-78
2021/08/31 01:27:39;;;;;;;26.53;14.43;;;16.10;99.90;;;;;;5073715;28;20342;-79
2021/08/31 01:30:07;;;;;;;28.57;14.47;;;16.10;99.90;;;;;;5073206;28;20681;-80
2021/08/31 01:32:34;;;;;;;26.40;14.17;;;16.10;99.90;;;;;;5073260;28;20235;-78
2021/08/31 01:35:01;;;;;;;25.53;15.00;;;16.10;99.90;;;;;;5073263;28;20204;-79
2021/08/31 01:37:28;;;;;;;31.17;15.13;;;16.10;99.90;;;;;;5073304;28;20693;-79
2021/08/31 01:39:55;;;;;;;26.63;14.77;;;16.00;99.90;;;;;;5073456;28;20231;-79
2021/08/31 01:42:23;;;;;;;30.27;15.10;;;15.90;99.90;;;;;;5073137;28;20305;-77
2021/08/31 01:44:50;;;;;;;26.80;15.07;;;15.90;99.90;;;;;;5073467;28;20287;-80
2021/08/31 01:47:17;;;;;;;27.53;16.43;;;15.90;99.90;;;;;;5073352;28;20325;-80
2021/08/31 01:49:44;;;;;;;33.00;17.57;;;16.00;99.90;;;;;;5073232;28;20292;-78
2021/08/31 01:52:10;;;;;;;33.37;17.53;;;16.10;99.90;;;;;;5072836;28;20680;-79
2021/08/31 01:54:37;;;;;;;31.87;17.03;;;16.00;99.90;;;;;;5064726;28;20298;-78
2021/08/31 01:57:05;;;;;;;32.93;16.73;;;15.90;99.90;;;;;;5073237;28;20234;-80
2021/08/31 01:59:33;;;;;;;33.63;17.03;;;15.90;99.90;;;;;;5073131;28;20226;-78
2021/08/31 02:02:00;;;;;;;30.80;16.93;;;15.90;99.90;;;;;;5072842;28;20223;-78
2021/08/31 02:04:27;;;;;;;31.57;17.83;;;15.90;99.90;;;;;;5074087;28;20283;-78
2021/08/31 02:06:54;;;;;;;29.37;17.50;;;15.90;99.90;;;;;;5079461;28;20198;-79
2021/08/31 02:09:21;;;;;;;34.77;19.33;;;15.80;99.90;;;;;;5074903;28;20441;-79
2021/08/31 02:11:48;;;;;;;33.53;18.43;;;15.80;99.90;;;;;;5072766;28;20203;-80
2021/08/31 02:14:15;;;;;;;30.53;18.73;;;15.90;99.90;;;;;;5073114;28;20245;-78
2021/08/31 02:16:43;;;;;;;33.03;18.87;;;16.00;99.90;;;;;;5073077;28;20286;-80
2021/08/31 02:19:10;;;;;;;33.87;19.27;;;16.00;99.90;;;;;;5073012;28;20286;-81
2021/08/31 02:21:37;;;;;;;34.37;20.10;;;16.00;99.90;;;;;;5073227;28;20311;-81
2021/08/31 02:24:05;;;;;;;36.23;19.30;;;15.90;99.90;;;;;;5073399;28;20303;-79
2021/08/31 02:26:33;;;;;;;40.03;20.53;;;15.80;99.90;;;;;;5072639;28;20235;-82
2021/08/31 02:29:00;;;;;;;35.83;20.67;;;15.70;99.90;;;;;;5072882;28;20199;-80
2021/08/31 02:31:26;;;;;;;38.27;21.93;;;15.80;99.90;;;;;;5087749;28;20208;-79
2021/08/31 02:33:55;;;;;;;37.57;20.77;;;15.70;99.90;;;;;;5078765;28;20294;-79
2021/08/31 02:36:22;;;;;;;35.60;20.87;;;15.70;99.90;;;;;;5074290;28;20642;-80
2021/08/31 02:38:48;;;;;;;34.77;21.80;;;15.70;99.90;;;;;;5073024;28;20287;-78
2021/08/31 02:41:16;;;;;;;41.87;21.90;;;15.70;99.90;;;;;;5072534;28;20286;-78
2021/08/31 02:43:42;;;;;;;36.57;21.90;;;15.60;99.90;;;;;;5072268;28;20234;-78
2021/08/31 02:46:09;;;;;;;36.60;21.87;;;15.50;99.90;;;;;;5072938;28;20196;-79
2021/08/31 02:48:36;;;;;;;36.27;22.23;;;15.60;99.90;;;;;;5072764;28;20294;-79
2021/08/31 02:51:05;;;;;;;40.57;23.57;;;15.70;99.90;;;;;;5072587;28;20658;-78
2021/08/31 02:53:31;;;;;;;41.80;23.40;;;15.70;99.90;;;;;;5072480;28;20214;-79
2021/08/31 02:55:59;;;;;;;45.00;26.33;;;15.70;99.90;;;;;;5072710;28;20291;-79
2021/08/31 02:58:25;;;;;;;50.57;26.20;;;15.60;99.90;;;;;;5072752;28;20275;-78
2021/08/31 03:01:04;;;;;;;51.47;27.20;;;15.60;99.90;;;;;;5072630;28;20739;-81
2021/08/31 03:03:31;;;;;;;49.97;27.03;;;15.60;99.90;;;;;;5072163;28;20228;-78
2021/08/31 03:05:58;;;;;;;46.77;28.20;;;15.60;99.90;;;;;;5072060;28;20207;-78
2021/08/31 03:08:27;;;;;;;51.33;27.70;;;15.60;99.90;;;;;;5072507;28;20752;-80
2021/08/31 03:10:54;;;;;;;48.80;27.67;;;15.50;99.90;;;;;;5070597;28;20234;-78
2021/08/31 03:13:20;;;;;;;48.30;28.03;;;15.50;99.90;;;;;;5072027;28;20238;-79
2021/08/31 03:15:48;;;;;;;46.83;27.50;;;15.50;99.90;;;;;;5073373;28;20614;-80
2021/08/31 03:18:14;;;;;;;48.17;26.93;;;15.50;99.90;;;;;;5076038;28;20299;-78
2021/08/31 03:20:41;;;;;;;44.27;26.60;;;15.40;99.90;;;;;;5076001;28;20314;-81
2021/08/31 03:23:09;;;;;;;47.07;26.43;;;15.40;99.90;;;;;;5075944;28;20250;-78
2021/08/31 03:25:37;;;;;;;49.30;26.93;;;15.50;99.90;;;;;;5075619;28;20579;-79
2021/08/31 03:28:04;;;;;;;43.90;24.07;;;15.50;99.90;;;;;;5075590;28;20218;-79
2021/08/31 03:30:31;;;;;;;50.27;25.73;;;15.60;99.90;;;;;;5075815;28;20265;-80
2021/08/31 03:32:58;;;;;;;44.47;25.40;;;15.60;99.90;;;;;;5075517;28;20203;-79
2021/08/31 03:35:25;;;;;;;40.27;24.57;;;15.70;99.90;;;;;;5076016;28;20225;-81
2021/08/31 03:37:51;;;;;;;37.00;22.83;;;15.70;99.90;;;;;;5075662;28;20231;-79
2021/08/31 03:40:19;;;;;;;39.83;23.67;;;15.60;99.90;;;;;;5076081;28;20227;-81
2021/08/31 03:42:47;;;;;;;39.30;23.83;;;15.70;99.90;;;;;;5075256;28;20270;-79
2021/08/31 03:45:14;;;;;;;40.60;24.13;;;15.70;99.90;;;;;;5075839;28;20200;-79
2021/08/31 03:47:41;;;;;;;35.23;23.40;;;15.60;99.90;;;;;;5075452;28;20230;-80
2021/08/31 03:50:09;;;;;;;37.27;23.10;;;15.80;99.90;;;;;;5075341;28;20298;-81
2021/08/31 03:52:37;;;;;;;40.77;22.47;;;15.80;99.90;;;;;;5075600;28;20610;-80
2021/08/31 03:55:04;;;;;;;42.20;23.47;;;15.80;99.90;;;;;;5075571;28;20619;-79
2021/08/31 03:57:31;;;;;;;38.83;23.83;;;15.80;99.90;;;;;;5075464;28;20669;-80
2021/08/31 03:59:59;;;;;;;37.50;22.30;;;15.80;99.90;;;;;;5075316;28;20661;-81
2021/08/31 04:02:26;;;;;;;39.57;22.93;;;15.80;99.90;;;;;;5075418;28;20306;-81
2021/08/31 04:04:53;;;;;;;39.43;23.37;;;15.80;99.90;;;;;;5075286;28;20230;-79
2021/08/31 04:07:20;;;;;;;40.60;24.57;;;15.70;99.90;;;;;;5075121;28;20206;-79
2021/08/31 04:09:47;;;;;;;39.30;24.33;;;15.70;99.90;;;;;;5084561;28;20641;-80
2021/08/31 04:12:14;;;;;;;43.03;24.60;;;15.80;99.90;;;;;;5079632;28;20252;-79
2021/08/31 04:14:41;;;;;;;40.93;24.23;;;15.70;99.90;;;;;;5075053;28;20658;-79
2021/08/31 04:17:09;;;;;;;38.20;23.20;;;15.70;99.90;;;;;;5075291;28;20230;-78
2021/08/31 04:19:36;;;;;;;38.23;23.93;;;15.80;99.90;;;;;;5061420;28;20199;-79
2021/08/31 04:22:04;;;;;;;39.60;22.90;;;15.90;99.90;;;;;;5074800;28;20295;-79
2021/08/31 04:24:31;;;;;;;39.07;23.97;;;15.90;99.90;;;;;;5074537;28;20619;-79
2021/08/31 04:26:58;;;;;;;38.03;23.30;;;15.90;99.90;;;;;;5075032;28;20223;-78
2021/08/31 04:29:25;;;;;;;37.97;23.63;;;15.90;99.90;;;;;;5074581;28;20286;-79
2021/08/31 04:31:52;;;;;;;35.70;23.53;;;16.00;99.90;;;;;;5084100;28;20203;-81
2021/08/31 04:34:20;;;;;;;36.70;23.03;;;16.00;99.90;;;;;;5093599;28;20575;-78
2021/08/31 04:36:47;;;;;;;32.83;21.97;;;16.10;99.90;;;;;;5074942;28;20203;-79
2021/08/31 04:39:14;;;;;;;32.80;21.57;;;16.10;99.90;;;;;;5088610;28;20272;-79
2021/08/31 04:41:41;;;;;;;31.07;21.40;;;16.00;99.90;;;;;;5074353;28;20730;-80
2021/08/31 04:44:08;;;;;;;33.93;22.10;;;16.00;99.90;;;;;;5074693;28;20231;-79
2021/08/31 04:46:35;;;;;;;35.00;22.00;;;16.00;99.90;;;;;;5074405;28;20242;-81
2021/08/31 04:49:02;;;;;;;34.57;22.10;;;15.80;99.90;;;;;;5074366;28;20283;-77
2021/08/31 04:51:30;;;;;;;34.20;22.17;;;15.80;99.90;;;;;;5074355;28;20834;-80
2021/08/31 04:53:57;;;;;;;34.73;22.00;;;15.70;99.90;;;;;;5074503;28;20294;-79
2021/08/31 04:56:24;;;;;;;37.10;22.73;;;15.70;99.90;;;;;;5074344;28;20291;-79
2021/08/31 04:58:51;;;;;;;35.77;23.47;;;15.70;99.90;;;;;;5074315;28;20253;-78
2021/08/31 05:01:18;;;;;;;35.80;21.70;;;15.70;99.90;;;;;;5074230;28;20291;-79
2021/08/31 05:03:46;;;;;;;33.60;21.47;;;15.80;99.90;;;;;;5073656;28;20219;-79
2021/08/31 05:06:13;;;;;;;33.43;21.00;;;15.90;99.90;;;;;;5074315;28;20278;-79
2021/08/31 05:08:41;;;;;;;34.03;21.77;;;16.10;99.90;;;;;;5074936;28;20297;-79
2021/08/31 05:11:08;;;;;;;34.90;21.80;;;16.10;99.90;;;;;;5073526;28;20202;-79
2021/08/31 05:13:40;;;;;;;36.93;22.80;;;15.90;99.90;;;;;;5072783;28;20208;-80
2021/08/31 05:16:07;;;;;;;34.37;22.77;;;15.90;99.90;;;;;;5073676;28;20203;-80
2021/08/31 05:18:35;;;;;;;31.80;21.90;;;15.80;99.90;;;;;;5073257;28;20294;-80
2021/08/31 05:21:02;;;;;;;31.40;21.53;;;15.80;99.90;;;;;;5072703;28;20211;-82
2021/08/31 05:23:29;;;;;;;34.30;22.33;;;15.70;99.90;;;;;;5073621;28;20246;-79
2021/08/31 05:25:57;;;;;;;36.57;23.23;;;15.80;99.90;;;;;;5072700;28;20278;-79
2021/08/31 05:28:24;;;;;;;35.90;22.07;;;15.70;99.90;;;;;;5065260;28;20292;-79
2021/08/31 05:30:51;;;;;;;36.37;21.93;;;15.70;99.90;;;;;;5065497;28;20323;-79
2021/08/31 05:33:18;;;;;;;31.87;22.03;;;15.70;99.90;;;;;;5079892;28;20227;-79
2021/08/31 05:35:45;;;;;;;33.90;22.30;;;15.80;99.90;;;;;;5084974;28;20310;-80
2021/08/31 05:38:12;;;;;;;32.30;21.37;;;15.90;99.90;;;;;;5087585;28;20199;-79
2021/08/31 05:40:39;;;;;;;33.53;22.10;;;16.00;99.90;;;;;;5076614;28;20231;-79
2021/08/31 05:43:08;;;;;;;31.13;20.93;;;16.20;99.90;;;;;;5086567;28;20825;-79
2021/08/31 05:45:35;;;;;;;31.80;20.73;;;16.20;99.90;;;;;;5078399;28;20287;-77
2021/08/31 05:48:02;;;;;;;35.13;21.67;;;16.20;99.90;;;;;;5084513;28;20246;-78
2021/08/31 05:50:29;;;;;;;34.37;19.63;;;16.20;99.90;;;;;;5088985;28;20291;-80
2021/08/31 05:52:57;;;;;;;30.40;19.90;;;16.10;99.90;;;;;;5079473;28;20270;-79
2021/08/31 05:55:23;;;;;;;30.60;20.17;;;16.00;99.90;;;;;;5084441;28;20195;-79
2021/08/31 05:57:50;;;;;;;29.87;20.57;;;16.00;99.90;;;;;;5086590;28;20282;-79
2021/08/31 06:00:19;;;;;;;31.00;20.33;;;16.10;99.90;;;;;;5070911;28;20294;-79
2021/08/31 06:02:46;;;;;;;30.13;19.57;;;16.10;99.90;;;;;;5072253;28;20339;-78
2021/08/31 06:05:13;;;;;;;27.07;18.43;;;16.20;99.90;;;;;;5072690;28;20195;-79
2021/08/31 06:07:40;;;;;;;30.20;18.83;;;16.00;99.90;;;;;;5073117;28;20226;-78
2021/08/31 06:10:08;;;;;;;29.37;19.00;;;16.00;99.90;;;;;;5072530;28;20294;-77
2021/08/31 06:12:35;;;;;;;27.87;18.50;;;16.00;99.90;;;;;;5072964;28;20227;-79
2021/08/31 06:15:02;;;;;;;29.63;18.87;;;16.00;99.90;;;;;;5072798;28;20651;-81
2021/08/31 06:17:32;;;;;;;27.13;18.30;;;15.90;99.90;;;;;;5072612;28;20294;-82
2021/08/31 06:19:58;;;;;;;29.83;18.90;;;15.90;99.90;;;;;;5072346;28;20672;-77
2021/08/31 06:22:26;;;;;;;30.07;19.00;;;16.10;99.90;;;;;;5078510;28;20287;-77
2021/08/31 06:24:52;;;;;;;25.33;17.93;;;16.10;99.90;;;;;;5082107;28;20310;-76
2021/08/31 06:27:19;;;;;;;26.03;18.13;;;16.20;99.90;;;;;;5080265;28;20191;-80
2021/08/31 06:29:46;;;;;;;26.03;18.27;;;16.30;99.90;;;;;;5075049;28;20618;-77
2021/08/31 06:32:13;;;;;;;25.20;17.33;;;16.30;99.90;;;;;;5083150;28;20278;-77
2021/08/31 06:34:41;;;;;;;28.67;18.30;;;16.40;99.90;;;;;;5080665;28;20725;-77
2021/08/31 06:37:08;;;;;;;25.00;17.40;;;16.60;99.90;;;;;;5083331;28;20616;-78
2021/08/31 06:39:35;;;;;;;23.63;17.60;;;16.60;99.90;;;;;;5082919;28;20677;-79
2021/08/31 06:42:02;;;;;;;27.60;17.37;;;16.50;99.90;;;;;;5078387;28;20729;-77
2021/08/31 06:44:29;;;;;;;24.07;17.33;;;16.50;99.90;;;;;;5086680;28;20306;-78
2021/08/31 06:46:55;;;;;;;29.27;18.37;;;16.90;99.90;;;;;;5071750;28;20215;-78
2021/08/31 06:49:22;;;;;;;28.07;17.93;;;16.90;99.90;;;;;;5072737;28;20219;-77
2021/08/31 06:51:56;;;;;;;25.10;16.87;;;16.80;99.90;;;;;;5054987;28;21201;-79
2021/08/31 06:54:23;;;;;;;27.73;17.77;;;16.70;99.90;;;;;;5051183;28;20637;-77
2021/08/31 06:56:50;;;;;;;22.33;16.30;;;16.60;99.90;;;;;;5066472;28;20256;-78
2021/08/31 06:59:17;;;;;;;27.87;16.90;;;16.80;99.90;;;;;;5080889;28;20187;-76
2021/08/31 07:01:44;;;;;;;24.90;17.43;;;16.60;99.90;;;;;;5073677;28;20673;-78
2021/08/31 07:04:11;;;;;;;24.77;15.83;;;16.60;99.90;;;;;;5076480;28;20264;-77
2021/08/31 07:06:38;;;;;;;23.90;16.20;;;16.50;99.90;;;;;;5067467;28;20199;-79
2021/08/31 07:09:07;;;;;;;23.07;15.77;;;16.40;99.90;;;;;;5076978;28;20219;-78
2021/08/31 07:11:33;;;;;;;26.23;15.97;;;16.50;99.90;;;;;;5078053;28;20717;-77
2021/08/31 07:14:00;;;;;;;22.67;15.23;;;16.80;99.90;;;;;;5088196;28;20199;-77
2021/08/31 07:16:27;;;;;;;23.43;15.40;;;16.70;99.90;;;;;;5088046;28;20250;-78
2021/08/31 07:18:54;;;;;;;20.70;15.40;;;16.70;99.90;;;;;;5091245;28;20604;-80
2021/08/31 07:21:21;;;;;;;22.60;15.23;;;16.70;99.90;;;;;;5083973;28;20282;-78
2021/08/31 07:23:48;;;;;;;23.63;16.10;;;16.90;99.90;;;;;;5082932;28;20222;-81
2021/08/31 07:26:17;;;;;;;24.33;16.37;;;17.00;99.90;;;;;;5074975;28;20207;-77
2021/08/31 07:28:43;;;;;;;23.23;15.57;;;17.20;99.90;;;;;;5074690;28;20292;-78
2021/08/31 07:31:11;;;;;;;27.27;15.70;;;17.20;99.90;;;;;;5075966;28;20282;-79
2021/08/31 07:33:37;;;;;;;23.67;16.43;;;17.00;99.90;;;;;;5074832;28;20574;-77
2021/08/31 07:36:05;;;;;;;21.07;14.70;;;17.00;99.90;;;;;;5076200;28;20238;-77
2021/08/31 07:38:32;;;;;;;22.97;15.63;;;17.30;99.90;;;;;;5070946;28;20601;-79
2021/08/31 07:40:59;;;;;;;26.47;15.90;;;17.30;99.90;;;;;;5066892;28;20290;-79
2021/08/31 07:43:27;;;;;;;20.27;15.00;;;17.30;99.90;;;;;;5068887;28;20231;-79
2021/08/31 07:45:54;;;;;;;24.30;15.30;;;17.50;99.90;;;;;;5077094;28;20195;-77
2021/08/31 07:48:21;;;;;;;22.47;14.70;;;17.40;99.90;;;;;;5080019;28;20227;-75
2021/08/31 07:50:48;;;;;;;20.30;14.70;;;17.40;99.90;;;;;;5062702;28;20275;-79
2021/08/31 07:53:15;;;;;;;22.47;15.33;;;17.70;99.90;;;;;;5058603;28;20298;-79
2021/08/31 07:55:42;;;;;;;22.60;15.30;;;17.80;99.90;;;;;;5067227;28;20196;-79
2021/08/31 07:58:09;;;;;;;23.03;15.63;;;17.80;99.90;;;;;;5061222;28;20208;-78
2021/08/31 08:00:39;;;;;;;23.53;14.40;;;17.90;99.90;;;;;;5069384;28;20234;-79
2021/08/31 08:03:06;;;;;;;22.80;14.87;;;17.70;99.90;;;;;;5074598;28;20191;-77
2021/08/31 08:05:33;;;;;;;20.37;14.23;;;17.60;99.90;;;;;;5079862;28;20224;-80
2021/08/31 08:08:00;;;;;;;22.73;14.70;;;17.60;99.90;;;;;;5088633;28;20207;-75
2021/08/31 08:10:27;;;;;;;19.43;14.13;;;17.70;99.90;;;;;;5078637;28;20208;-77
2021/08/31 08:12:54;;;;;;;24.43;14.87;;;18.00;99.90;;;;;;5085862;28;20219;-78
2021/08/31 08:15:23;;;;;;;24.37;15.30;;;18.20;99.90;;;;;;5087508;28;20211;-76
2021/08/31 08:17:51;;;;;;;23.13;14.37;;;18.10;99.90;;;;;;5097747;28;20206;-78
2021/08/31 08:20:18;;;;;;;23.27;15.53;;;17.90;99.90;;;;;;5079295;28;20196;-77
2021/08/31 08:22:45;;;;;;;26.60;15.20;;;17.80;99.90;;;;;;5082968;28;20199;-78
2021/08/31 08:25:14;;;;;;;22.57;15.30;;;17.70;99.90;;;;;;5079249;28;20219;-78
2021/08/31 08:27:41;;;;;;;19.97;14.77;;;17.60;99.90;;;;;;5085488;28;20219;-78
2021/08/31 08:30:09;;;;;;;24.50;14.03;;;17.80;99.90;;;;;;5083598;28;20231;-78
2021/08/31 08:32:36;;;;;;;21.53;14.27;;;17.50;99.90;;;;;;5089170;28;20250;-80
2021/08/31 08:35:06;;;;;;;20.03;14.07;;;17.40;99.90;;;;;;5082562;28;20227;-78
2021/08/31 08:37:33;;;;;;;24.67;15.27;;;17.40;99.90;;;;;;5072391;28;20196;-80
2021/08/31 08:40:00;;;;;;;22.80;14.73;;;17.50;99.90;;;;;;5079724;28;20248;-78
2021/08/31 08:42:28;;;;;;;27.70;15.03;;;17.70;99.90;;;;;;5070241;28;20605;-77
2021/08/31 08:44:55;;;;;;;26.00;15.10;;;17.60;99.90;;;;;;4956559;28;3392409;-80
2021/08/31 08:47:22;;;;;;;25.43;14.30;;;17.40;99.90;;;;;;5077434;28;20196;-78
2021/08/31 08:49:50;;;;;;;22.20;13.90;;;17.60;99.90;;;;;;5076844;28;20286;-81
2021/08/31 08:52:19;;;;;;;22.43;14.83;;;17.90;99.90;;;;;;5068305;28;20199;-77
2021/08/31 08:54:46;;;;;;;27.90;13.30;;;18.10;99.90;;;;;;5074103;28;20704;-77
2021/08/31 08:57:12;;;;;;;19.63;13.87;;;18.00;99.90;;;;;;5074202;28;20574;-77
2021/08/31 08:59:42;;;;;;;25.07;13.90;;;18.10;99.90;;;;;;5073524;28;20721;-77
2021/08/31 09:02:10;;;;;;;22.13;13.20;;;18.30;99.90;;;;;;5074206;28;20234;-80
2021/08/31 09:04:46;;;;;;;22.03;13.30;;;18.40;99.90;;;;;;5073809;28;20227;-78
2021/08/31 09:07:19;;;;;;;21.60;13.23;;;18.50;99.90;;;;;;5071080;28;20857;-80
2021/08/31 09:09:49;;;;;;;20.20;12.33;;;18.40;99.90;;;;;;5072255;28;20203;-78
2021/08/31 09:12:33;;;;;;;24.53;12.97;;;18.20;99.90;;;;;;5074201;28;20207;-81
2021/08/31 09:15:22;;;;;;;17.33;10.73;;;18.50;99.90;;;;;;5070848;28;20286;-79
2021/08/31 09:18:17;;;;;;;18.83;11.43;;;18.50;99.90;;;;;;5072813;28;20234;-78
2021/08/31 09:20:57;;;;;;;18.70;10.80;;;19.00;99.90;;;;;;5053203;28;20256;-79
2021/08/31 09:23:27;;;;;;;20.73;11.40;;;18.70;99.90;;;;;;5074858;28;20275;-78
2021/08/31 09:25:56;;;;;;;17.87;11.40;;;18.30;99.90;;;;;;5073686;28;20310;-77
2021/08/31 09:28:26;;;;;;;15.80;10.90;;;18.20;99.90;;;;;;5066927;28;20557;-77
2021/08/31 09:31:01;;;;;;;17.67;10.60;;;18.30;99.90;;;;;;5073531;28;20631;-76
2021/08/31 09:33:30;;;;;;;20.30;11.27;;;18.90;99.90;;;;;;5073224;28;20233;-79
2021/08/31 09:36:04;;;;;;;16.67;11.40;;;19.30;99.90;;;;;;5073085;28;20570;-78
2021/08/31 09:38:51;;;;;;;17.43;11.40;;;19.50;99.90;;;;;;5058564;28;20203;-79
2021/08/31 09:41:34;;;;;;;20.23;11.27;;;19.80;99.90;;;;;;5071941;28;20219;-76
2021/08/31 09:44:03;;;;;;;16.93;10.57;;;20.30;99.90;;;;;;5072294;28;20234;-79
2021/08/31 09:46:57;;;;;;;19.50;11.33;;;20.20;99.90;;;;;;5072719;28;20235;-78
2021/08/31 09:49:27;;;;;;;14.87;9.67;;;19.90;99.90;;;;;;5067862;28;20635;-79
2021/08/31 09:52:10;;;;;;;16.13;10.33;;;20.50;99.90;;;;;;5069535;28;20202;-77
2021/08/31 09:54:42;;;;;;;17.00;10.53;;;21.30;99.90;;;;;;5072415;28;20196;-80
2021/08/31 09:57:26;;;;;;;16.65;9.90;;;21.90;99.90;;;;;;5082833;28;20740;-77
2021/08/31 09:59:53;;;;;;;12.73;9.40;;;23.50;99.90;;;;;;5066459;28;20283;-78
2021/08/31 10:02:20;;;;;;;13.48;8.93;;;25.50;99.90;;;;;;5069296;28;20264;-79
2021/08/31 10:04:47;;;;;;;18.98;9.25;;;24.90;99.90;;;;;;5081041;28;20219;-76
2021/08/31 10:07:15;;;;;;;17.75;9.48;;;24.70;99.90;;;;;;5068971;28;20253;-77
2021/08/31 10:09:44;;;;;;;16.25;10.40;;;23.50;99.90;;;;;;5048412;28;20207;-79
2021/08/31 10:12:12;;;;;;;19.60;9.68;;;23.30;99.90;;;;;;5058931;28;20200;-76
2021/08/31 10:14:43;;;;;;;17.95;9.20;;;23.20;99.90;;;;;;5059829;28;20202;-82
2021/08/31 10:17:11;;;;;;;15.68;9.40;;;23.20;99.90;;;;;;5059366;28;20231;-79
2021/08/31 10:19:40;;;;;;;13.30;8.70;;;23.40;99.90;;;;;;5071558;28;20658;-80
2021/08/31 10:22:08;;;;;;;14.82;8.98;;;23.60;99.90;;;;;;5078706;28;20661;-78
2021/08/31 10:24:35;;;;;;;12.05;8.23;;;23.10;99.90;;;;;;5068653;28;20318;-78
2021/08/31 10:27:32;;;;;;;13.25;9.50;;;23.50;99.90;;;;;;5068034;28;20255;-79
2021/08/31 10:30:34;;;;;;;15.65;8.80;;;24.80;99.90;;;;;;5068831;28;20223;-80
2021/08/31 10:33:03;;;;;;;15.77;8.98;;;25.20;99.90;;;;;;5088122;28;20194;-81
2021/08/31 10:35:54;;;;;;;13.63;9.25;;;25.30;99.90;;;;;;5083680;28;20235;-81
2021/08/31 10:38:49;;;;;;;12.43;8.80;;;27.10;99.90;;;;;;5065707;28;20200;-80
2021/08/31 10:41:47;;;;;;;12.90;8.43;;;29.30;99.90;;;;;;5079274;28;20199;-80
2021/08/31 10:44:44;;;;;;;13.02;8.60;;;30.90;99.90;;;;;;5066725;28;20265;-80
2021/08/31 10:47:20;;;;;;;16.25;8.30;;;28.30;99.90;;;;;;5070637;28;20196;-80
2021/08/31 10:50:21;;;;;;;14.10;8.82;;;27.90;99.90;;;;;;5076571;28;20192;-78
2021/08/31 10:53:10;;;;;;;10.60;8.43;;;28.30;99.90;;;;;;5067517;28;20270;-80
2021/08/31 10:55:41;;;;;;;11.07;7.82;;;28.00;99.90;;;;;;5072795;28;20314;-79
2021/08/31 10:58:10;;;;;;;15.00;7.88;;;27.40;99.90;;;;;;5058729;28;20651;-78
2021/08/31 11:00:53;;;;;;;11.02;7.15;;;26.90;99.90;;;;;;5059260;28;20508;-79
2021/08/31 11:03:38;;;;;;;11.68;7.55;;;27.40;99.90;;;;;;5075317;28;20195;-81
2021/08/31 11:06:23;;;;;;;9.02;7.20;;;28.20;99.90;;;;;;5076663;28;20226;-80
2021/08/31 11:09:19;;;;;;;13.77;7.85;;;30.00;99.90;;;;;;5066953;28;20664;-80
2021/08/31 11:11:50;;;;;;;10.05;7.90;;;30.00;99.90;;;;;;5072111;28;20214;-76
2021/08/31 11:14:18;;;;;;;15.82;6.60;;;28.80;99.90;;;;;;5061524;28;20208;-75
2021/08/31 11:16:49;;;;;;;11.55;7.65;;;28.50;99.90;;;;;;5073346;28;20207;-79
2021/08/31 11:19:27;;;;;;;13.30;7.72;;;27.90;99.90;;;;;;5075138;28;20206;-77
2021/08/31 11:21:56;;;;;;;10.43;7.35;;;26.80;99.90;;;;;;5071318;28;20230;-81
2021/08/31 11:24:23;;;;;;;12.60;7.72;;;26.40;99.90;;;;;;5071063;28;20205;-79
2021/08/31 11:26:56;;;;;;;10.95;8.20;;;25.60;99.90;;;;;;5071636;28;20695;-81
2021/08/31 11:29:23;;;;;;;11.35;7.68;;;25.80;99.90;;;;;;5077745;28;20653;-80
2021/08/31 11:31:58;;;;;;;10.90;7.55;;;26.10;99.90;;;;;;5070109;28;20291;-79
2021/08/31 11:34:25;;;;;;;10.55;7.00;;;26.60;99.90;;;;;;5072069;28;20716;-82
2021/08/31 11:37:02;;;;;;;13.27;7.38;;;27.00;99.90;;;;;;5070594;28;20905;-79
2021/08/31 11:39:29;;;;;;;13.52;6.47;;;27.90;99.90;;;;;;5082061;28;20663;-77
2021/08/31 11:41:56;;;;;;;9.45;6.35;;;27.40;99.90;;;;;;5081461;28;20294;-79
2021/08/31 11:44:24;;;;;;;10.82;6.60;;;26.50;99.90;;;;;;5078519;28;20211;-83
2021/08/31 11:46:54;;;;;;;11.98;5.85;;;25.50;99.90;;;;;;5075327;28;20200;-78
2021/08/31 11:49:23;;;;;;;13.30;6.70;;;24.20;99.90;;;;;;5091361;28;20221;-80
2021/08/31 11:52:05;;;;;;;9.70;6.53;;;23.30;99.90;;;;;;5082497;28;20302;-79
2021/08/31 11:54:34;;;;;;;8.68;6.95;;;22.10;99.90;;;;;;5069916;28;20210;-79
2021/08/31 11:57:02;;;;;;;10.73;6.88;;;21.60;99.90;;;;;;5083158;28;20685;-80
2021/08/31 11:59:40;;;;;;;11.00;6.78;;;21.30;99.90;;;;;;5084797;28;20280;-79
2021/08/31 12:02:14;;;;;;;12.57;7.00;;;21.50;99.90;;;;;;5088005;28;20218;-77
2021/08/31 12:04:42;;;;;;;9.77;6.53;;;21.90;99.90;;;;;;5066196;28;20231;-80
2021/08/31 12:07:11;;;;;;;11.88;6.30;;;21.80;99.90;;;;;;5076048;28;20194;-78
2021/08/31 12:09:42;;;;;;;12.63;6.97;;;21.80;99.90;;;;;;5065222;28;20199;-77
2021/08/31 12:12:11;;;;;;;12.07;7.07;;;21.90;99.90;;;;;;5080582;28;20283;-77
2021/08/31 12:14:39;;;;;;;13.93;7.50;;;22.70;99.90;;;;;;5076564;28;20199;-79
2021/08/31 12:17:07;;;;;;;11.18;7.53;;;23.50;99.90;;;;;;5081330;28;20223;-81
2021/08/31 12:19:35;;;;;;;18.67;6.97;;;24.70;99.90;;;;;;5084265;28;20207;-81
2021/08/31 12:22:11;;;;;;;10.95;6.70;;;26.40;99.90;;;;;;5072859;28;20298;-81
2021/08/31 12:24:39;;;;;;;11.82;6.60;;;27.60;99.90;;;;;;5058662;28;20278;-81
2021/08/31 12:27:12;;;;;;;12.13;6.82;;;27.40;99.90;;;;;;5055808;28;20283;-79
2021/08/31 12:29:51;;;;;;;12.23;6.70;;;24.90;99.90;;;;;;5077469;28;20264;-79
2021/08/31 12:32:29;;;;;;;11.23;6.25;;;23.50;99.90;;;;;;5067621;28;20246;-80
2021/08/31 12:35:21;;;;;;;8.18;5.55;;;22.60;99.90;;;;;;5068768;28;20202;-82
2021/08/31 12:37:48;;;;;;;11.60;6.57;;;21.80;99.90;;;;;;5073795;28;20227;-80
2021/08/31 12:40:19;;;;;;;9.88;6.10;;;21.60;99.90;;;;;;5073128;28;20203;-81